Time;durP1;ratioP1;P1;durP2;ratioP2;P2;SDS_P1;SDS_P2;PMS_P1;PMS_P2;Temp;Humidity;BMP_temperature;BMP_pressure;BME280_temperature;BME280_humidity;BME280_pressure;Samples;Min_cycle;Max_cycle;Signal;HPM_P1;HPM_P2
2021/09/22 00:00:21;;;;;;;18.05;13.90;;;12.30;99.90;;;;;;5134667;27;20027;-66
2021/09/22 00:02:47;;;;;;;17.98;13.82;;;12.30;99.90;;;;;;5134568;27;20015;-66
2021/09/22 00:05:13;;;;;;;19.48;14.20;;;12.30;99.90;;;;;;5134340;27;20067;-66
2021/09/22 00:07:40;;;;;;;19.02;13.90;;;12.30;99.90;;;;;;5134437;27;20436;-66
2021/09/22 00:10:07;;;;;;;18.70;13.02;;;12.30;99.90;;;;;;5115937;27;20463;-66
2021/09/22 00:12:32;;;;;;;16.85;12.77;;;12.20;99.90;;;;;;5134295;27;20019;-66
2021/09/22 00:14:58;;;;;;;18.85;13.15;;;12.10;99.90;;;;;;5134369;27;20023;-66
2021/09/22 00:17:24;;;;;;;20.35;13.82;;;12.10;99.90;;;;;;5134264;27;20052;-66
2021/09/22 00:19:49;;;;;;;17.75;13.20;;;12.20;99.90;;;;;;5134146;27;20430;-65
2021/09/22 00:22:15;;;;;;;17.00;12.90;;;12.20;99.90;;;;;;5134000;27;20023;-65
2021/09/22 00:24:41;;;;;;;16.80;12.48;;;12.10;99.90;;;;;;5115730;27;20023;-65
2021/09/22 00:27:06;;;;;;;21.38;12.02;;;12.00;99.90;;;;;;5134107;27;20019;-65
2021/09/22 00:29:32;;;;;;;15.13;11.38;;;11.80;99.90;;;;;;5134414;27;20027;-65
2021/09/22 00:31:58;;;;;;;16.50;12.20;;;11.50;99.90;;;;;;5133952;27;20023;-65
2021/09/22 00:34:24;;;;;;;18.48;12.88;;;11.50;99.90;;;;;;5116218;27;20117;-65
2021/09/22 00:36:49;;;;;;;16.20;12.68;;;11.50;99.90;;;;;;5133692;27;20134;-65
2021/09/22 00:39:16;;;;;;;16.95;11.88;;;11.60;99.90;;;;;;5133758;27;20098;-66
2021/09/22 00:41:42;;;;;;;16.70;12.25;;;11.60;99.90;;;;;;5133722;27;20511;-65
2021/09/22 00:44:08;;;;;;;14.95;11.57;;;11.60;99.90;;;;;;5116351;27;20061;-65
2021/09/22 00:46:34;;;;;;;21.33;13.05;;;11.40;99.90;;;;;;5115823;27;20507;-65
2021/09/22 00:48:59;;;;;;;18.08;12.82;;;11.50;99.90;;;;;;5133543;27;20027;-66
2021/09/22 00:51:25;;;;;;;17.10;13.10;;;11.60;99.90;;;;;;5133458;27;20101;-65
2021/09/22 00:53:51;;;;;;;17.10;12.75;;;11.70;99.90;;;;;;5133597;27;20110;-65
2021/09/22 00:56:17;;;;;;;15.90;12.10;;;11.70;99.90;;;;;;5133379;27;20106;-65
2021/09/22 00:58:43;;;;;;;15.95;12.50;;;11.60;99.90;;;;;;5133345;27;20146;-65
2021/09/22 01:01:09;;;;;;;16.35;12.23;;;11.60;99.90;;;;;;5133380;27;20039;-65
2021/09/22 01:03:34;;;;;;;17.90;11.95;;;11.40;99.90;;;;;;5133258;27;20030;-65
2021/09/22 01:06:01;;;;;;;15.20;11.43;;;11.30;99.90;;;;;;5133401;27;20027;-65
2021/09/22 01:08:32;;;;;;;16.23;12.00;;;11.40;99.90;;;;;;5133773;27;20023;-65
2021/09/22 01:10:58;;;;;;;16.30;11.25;;;11.40;99.90;;;;;;5134076;27;20026;-65
2021/09/22 01:13:25;;;;;;;16.25;11.57;;;11.20;99.90;;;;;;5133548;27;20045;-65
2021/09/22 01:15:51;;;;;;;16.17;12.52;;;11.30;99.90;;;;;;5134053;27;20106;-65
2021/09/22 01:18:20;;;;;;;21.85;12.73;;;11.50;99.90;;;;;;5133644;27;20083;-65
2021/09/22 01:20:51;;;;;;;14.30;12.23;;;11.70;99.90;;;;;;5114736;27;20031;-65
2021/09/22 01:23:18;;;;;;;15.90;12.82;;;11.60;99.90;;;;;;5114628;27;20435;-65
2021/09/22 01:25:47;;;;;;;15.32;12.10;;;11.60;99.90;;;;;;5132681;27;20352;-65
2021/09/22 01:28:15;;;;;;;15.65;12.70;;;11.40;99.90;;;;;;5133845;27;20043;-65
2021/09/22 01:30:41;;;;;;;22.38;11.88;;;11.20;99.90;;;;;;5133546;27;20391;-65
2021/09/22 01:33:10;;;;;;;14.93;10.77;;;10.90;99.90;;;;;;5133534;27;20033;-65
2021/09/22 01:35:41;;;;;;;19.42;11.85;;;10.80;99.90;;;;;;5133784;27;20023;-65
2021/09/22 01:38:10;;;;;;;20.63;12.30;;;10.70;99.90;;;;;;5133294;27;20286;-65
2021/09/22 01:40:36;;;;;;;17.75;11.52;;;10.70;99.90;;;;;;5133704;27;20106;-65
2021/09/22 01:43:03;;;;;;;19.38;11.68;;;10.70;99.90;;;;;;5133251;27;20068;-65
2021/09/22 01:45:28;;;;;;;16.92;12.43;;;10.80;99.90;;;;;;5133452;27;20087;-65
2021/09/22 01:47:54;;;;;;;16.90;11.77;;;10.80;99.90;;;;;;5133571;27;20023;-65
2021/09/22 01:50:22;;;;;;;15.20;10.88;;;10.70;99.90;;;;;;5133191;28;20027;-65
2021/09/22 01:52:50;;;;;;;15.70;12.40;;;10.60;99.90;;;;;;5133202;28;20027;-65
2021/09/22 01:55:21;;;;;;;27.73;14.18;;;10.70;99.90;;;;;;5133770;28;20022;-65
2021/09/22 01:57:48;;;;;;;17.20;12.45;;;10.70;99.90;;;;;;5114525;28;20030;-65
2021/09/22 02:00:14;;;;;;;16.42;12.65;;;10.70;99.90;;;;;;5132997;28;20053;-65
2021/09/22 02:02:41;;;;;;;16.45;13.32;;;10.60;99.90;;;;;;5133495;28;20468;-65
2021/09/22 02:05:07;;;;;;;19.27;13.13;;;10.60;99.90;;;;;;5132868;28;20033;-65
2021/09/22 02:07:33;;;;;;;24.13;15.38;;;10.60;99.90;;;;;;5133449;28;20037;-65
2021/09/22 02:09:59;;;;;;;22.27;15.90;;;10.70;99.90;;;;;;5114862;28;20540;-65
2021/09/22 02:12:26;;;;;;;23.90;16.02;;;10.80;99.90;;;;;;5133520;28;20020;-65
2021/09/22 02:14:52;;;;;;;21.70;15.52;;;10.80;99.90;;;;;;5132799;28;20015;-65
2021/09/22 02:17:17;;;;;;;26.30;16.23;;;10.70;99.90;;;;;;5114596;28;20080;-66
2021/09/22 02:19:43;;;;;;;25.05;16.65;;;10.70;99.90;;;;;;5132703;28;20026;-66
2021/09/22 02:22:09;;;;;;;23.33;15.60;;;10.70;99.90;;;;;;5132832;28;20034;-66
2021/09/22 02:24:37;;;;;;;23.63;16.83;;;10.70;99.90;;;;;;5114564;28;20072;-66
2021/09/22 02:27:03;;;;;;;24.65;15.90;;;10.70;99.90;;;;;;5132980;28;20326;-66
2021/09/22 02:29:29;;;;;;;21.65;15.35;;;10.70;99.90;;;;;;5133108;28;20035;-65
2021/09/22 02:31:54;;;;;;;21.77;14.40;;;10.60;99.90;;;;;;5133043;28;20035;-65
2021/09/22 02:34:20;;;;;;;23.70;15.75;;;10.70;99.90;;;;;;5114539;28;20387;-65
2021/09/22 02:36:46;;;;;;;22.27;15.48;;;10.60;99.90;;;;;;5133452;27;20043;-65
2021/09/22 02:39:11;;;;;;;23.17;16.10;;;10.60;99.90;;;;;;5136382;27;20027;-65
2021/09/22 02:41:37;;;;;;;24.85;16.02;;;10.70;99.90;;;;;;5136079;27;20105;-65
2021/09/22 02:44:04;;;;;;;18.67;14.57;;;10.70;99.90;;;;;;5136366;27;20037;-65
2021/09/22 02:46:29;;;;;;;19.73;15.02;;;10.70;99.90;;;;;;5136527;27;20602;-65
2021/09/22 02:48:55;;;;;;;23.25;16.63;;;10.50;99.90;;;;;;5136570;27;20067;-65
2021/09/22 02:51:21;;;;;;;22.10;15.50;;;10.50;99.90;;;;;;5136511;27;20392;-65
2021/09/22 02:53:47;;;;;;;21.35;15.40;;;10.40;99.90;;;;;;5118133;27;20055;-65
2021/09/22 02:56:12;;;;;;;21.45;15.63;;;10.40;99.90;;;;;;5118345;27;20038;-65
2021/09/22 02:58:38;;;;;;;21.23;16.05;;;10.50;99.90;;;;;;5136526;27;20484;-65
2021/09/22 03:01:03;;;;;;;23.15;15.55;;;10.60;99.90;;;;;;5136563;27;20051;-65
2021/09/22 03:03:31;;;;;;;26.75;16.45;;;10.50;99.90;;;;;;5117943;27;20037;-65
2021/09/22 03:05:57;;;;;;;23.23;16.10;;;10.50;99.90;;;;;;5136260;27;20055;-65
2021/09/22 03:08:22;;;;;;;22.63;16.60;;;10.50;99.90;;;;;;5136082;27;20019;-65
2021/09/22 03:10:48;;;;;;;22.75;16.15;;;10.50;99.90;;;;;;5136381;27;20084;-65
2021/09/22 03:13:14;;;;;;;19.20;14.65;;;10.40;99.90;;;;;;5136207;27;20031;-65
2021/09/22 03:15:40;;;;;;;23.52;16.58;;;10.30;99.90;;;;;;5136351;27;20035;-65
2021/09/22 03:18:05;;;;;;;21.63;16.52;;;10.30;99.90;;;;;;5136140;27;20026;-65
2021/09/22 03:20:31;;;;;;;20.30;14.82;;;10.30;99.90;;;;;;5135831;27;20030;-65
2021/09/22 03:22:57;;;;;;;21.08;14.75;;;10.20;99.90;;;;;;5135894;27;20102;-65
2021/09/22 03:25:23;;;;;;;20.10;15.88;;;10.10;99.90;;;;;;5117518;27;20126;-65
2021/09/22 03:27:49;;;;;;;22.80;16.48;;;10.10;99.90;;;;;;5135875;27;20034;-65
2021/09/22 03:30:15;;;;;;;26.33;16.88;;;10.20;99.90;;;;;;5117500;27;20031;-65
2021/09/22 03:32:41;;;;;;;23.25;16.20;;;10.40;99.90;;;;;;5117579;27;20056;-65
2021/09/22 03:35:07;;;;;;;19.65;14.40;;;10.30;99.90;;;;;;5135940;27;20091;-65
2021/09/22 03:37:36;;;;;;;18.45;13.98;;;10.20;99.90;;;;;;5135548;27;20437;-65
2021/09/22 03:40:03;;;;;;;20.73;15.88;;;10.10;99.90;;;;;;5135741;27;20030;-65
2021/09/22 03:42:28;;;;;;;24.23;16.85;;;10.20;99.90;;;;;;5117159;27;20030;-65
2021/09/22 03:44:54;;;;;;;22.10;15.07;;;10.30;99.90;;;;;;5135873;27;20076;-65
2021/09/22 03:47:20;;;;;;;19.50;15.05;;;10.20;99.90;;;;;;5135154;27;20019;-65
2021/09/22 03:49:45;;;;;;;20.42;15.02;;;10.00;99.90;;;;;;5135580;27;20019;-65
2021/09/22 03:52:11;;;;;;;19.58;14.27;;;10.00;99.90;;;;;;5135548;27;20023;-65
2021/09/22 03:54:36;;;;;;;20.15;14.95;;;9.90;99.90;;;;;;5135360;27;20035;-65
2021/09/22 03:57:02;;;;;;;23.10;16.08;;;9.90;99.90;;;;;;5116731;27;20050;-65
2021/09/22 03:59:28;;;;;;;29.30;18.60;;;9.90;99.90;;;;;;5135198;27;20035;-65
2021/09/22 04:01:53;;;;;;;28.35;19.23;;;10.00;99.90;;;;;;5134841;27;20055;-65
2021/09/22 04:04:19;;;;;;;25.90;18.85;;;10.10;99.90;;;;;;5116915;27;20471;-65
2021/09/22 04:06:44;;;;;;;26.95;19.73;;;10.30;99.90;;;;;;5134860;27;20042;-65
2021/09/22 04:09:10;;;;;;;31.08;20.73;;;10.30;99.90;;;;;;5135220;27;20023;-65
2021/09/22 04:11:39;;;;;;;30.55;20.25;;;10.30;99.90;;;;;;5135497;27;20375;-65
2021/09/22 04:14:05;;;;;;;27.80;18.42;;;10.10;99.90;;;;;;5135071;27;20028;-65
2021/09/22 04:16:30;;;;;;;31.38;19.77;;;10.00;99.90;;;;;;5134983;27;20031;-65
2021/09/22 04:18:56;;;;;;;29.90;20.45;;;10.00;99.90;;;;;;5134678;27;20027;-65
2021/09/22 04:21:22;;;;;;;26.75;18.73;;;9.90;99.90;;;;;;5134791;27;20028;-65
2021/09/22 04:23:47;;;;;;;31.30;20.20;;;9.80;99.90;;;;;;5116106;27;20077;-65
2021/09/22 04:26:13;;;;;;;30.98;21.67;;;9.80;99.90;;;;;;5134421;27;20106;-65
2021/09/22 04:28:39;;;;;;;36.10;22.27;;;9.90;99.90;;;;;;5134273;27;20038;-65
2021/09/22 04:31:05;;;;;;;29.10;20.75;;;9.90;99.90;;;;;;5134374;27;20027;-65
2021/09/22 04:33:30;;;;;;;31.38;20.55;;;9.80;99.90;;;;;;5134341;27;20031;-66
2021/09/22 04:35:56;;;;;;;29.50;21.08;;;9.70;99.90;;;;;;5134838;27;20023;-65
2021/09/22 04:38:23;;;;;;;35.25;21.30;;;9.80;99.90;;;;;;5134412;27;20043;-65
2021/09/22 04:40:49;;;;;;;35.00;21.20;;;9.70;99.90;;;;;;5134645;27;20027;-65
2021/09/22 04:43:15;;;;;;;33.53;20.98;;;9.70;99.90;;;;;;5134055;27;20080;-65
2021/09/22 04:45:43;;;;;;;34.58;23.52;;;9.80;99.90;;;;;;5134378;27;20051;-65
2021/09/22 04:48:08;;;;;;;36.17;22.42;;;9.80;99.90;;;;;;5134098;27;20475;-65
2021/09/22 04:50:34;;;;;;;33.90;22.63;;;9.90;99.90;;;;;;5133851;27;20045;-65
2021/09/22 04:53:00;;;;;;;34.45;23.42;;;9.90;99.90;;;;;;5115254;27;20025;-65
2021/09/22 04:55:26;;;;;;;34.08;23.25;;;9.90;99.90;;;;;;5134019;27;20106;-65
2021/09/22 04:57:51;;;;;;;36.05;23.13;;;9.90;99.90;;;;;;5115382;27;20023;-65
2021/09/22 05:00:18;;;;;;;31.10;21.45;;;9.90;99.90;;;;;;5133112;27;20023;-65
2021/09/22 05:02:43;;;;;;;27.15;21.00;;;9.80;99.90;;;;;;5134171;27;20019;-65
2021/09/22 05:05:09;;;;;;;30.25;21.65;;;9.70;99.90;;;;;;5134100;27;20503;-65
2021/09/22 05:07:35;;;;;;;37.03;22.85;;;9.70;99.90;;;;;;5134477;27;20022;-65
2021/09/22 05:10:01;;;;;;;29.80;20.95;;;9.60;99.90;;;;;;5134039;27;20027;-65
2021/09/22 05:12:26;;;;;;;30.73;21.08;;;9.60;99.90;;;;;;5115712;27;20391;-65
2021/09/22 05:14:52;;;;;;;36.60;22.85;;;9.60;99.90;;;;;;5115766;27;20030;-65
2021/09/22 05:17:17;;;;;;;35.38;22.92;;;9.70;99.90;;;;;;5134327;27;20023;-65
2021/09/22 05:19:43;;;;;;;32.40;22.13;;;9.60;99.90;;;;;;5134098;27;20405;-65
2021/09/22 05:22:09;;;;;;;37.50;22.27;;;9.60;99.90;;;;;;5134839;27;20023;-65
2021/09/22 05:24:34;;;;;;;34.15;21.73;;;9.50;99.90;;;;;;5133510;27;20019;-65
2021/09/22 05:27:00;;;;;;;38.05;22.77;;;9.40;99.90;;;;;;5115172;27;20027;-65
2021/09/22 05:29:26;;;;;;;34.58;23.30;;;9.40;99.90;;;;;;5133490;27;20047;-65
2021/09/22 05:31:51;;;;;;;45.20;24.90;;;9.30;99.90;;;;;;5133772;27;20059;-65
2021/09/22 05:34:17;;;;;;;37.83;23.45;;;9.30;99.90;;;;;;5145405;27;20031;-65
2021/09/22 05:36:42;;;;;;;31.42;22.88;;;9.30;99.90;;;;;;5153520;27;20043;-65
2021/09/22 05:39:08;;;;;;;30.63;21.58;;;9.30;99.90;;;;;;5132816;27;20250;-65
2021/09/22 05:41:34;;;;;;;31.65;22.17;;;9.30;99.90;;;;;;5134055;27;20023;-65
2021/09/22 05:43:59;;;;;;;29.63;21.40;;;9.30;99.90;;;;;;5114883;27;20091;-65
2021/09/22 05:46:25;;;;;;;31.05;21.60;;;9.20;99.90;;;;;;5113310;28;20053;-65
2021/09/22 05:48:51;;;;;;;34.60;21.70;;;9.20;99.90;;;;;;5110442;28;20494;-64
2021/09/22 05:51:16;;;;;;;34.65;23.50;;;9.20;99.90;;;;;;5127725;27;20031;-64
2021/09/22 05:53:44;;;;;;;36.17;23.38;;;9.40;99.90;;;;;;5132735;28;20031;-64
2021/09/22 05:56:10;;;;;;;33.97;23.05;;;9.40;99.90;;;;;;5110778;28;20035;-65
2021/09/22 05:58:36;;;;;;;34.35;21.92;;;9.50;99.90;;;;;;5112005;28;20379;-64
2021/09/22 06:01:02;;;;;;;33.65;21.33;;;9.40;99.90;;;;;;5131012;28;20026;-65
2021/09/22 06:03:28;;;;;;;33.40;20.65;;;9.30;99.90;;;;;;5130662;28;20031;-64
2021/09/22 06:05:54;;;;;;;30.20;19.10;;;9.30;99.90;;;;;;5107865;28;20019;-64
2021/09/22 06:08:20;;;;;;;34.33;19.98;;;9.40;99.90;;;;;;5090964;28;20031;-64
2021/09/22 06:10:46;;;;;;;29.83;19.42;;;9.40;99.90;;;;;;5100942;27;20038;-65
2021/09/22 06:13:12;;;;;;;33.80;21.25;;;9.60;99.90;;;;;;5108550;27;20027;-65
2021/09/22 06:15:39;;;;;;;29.45;19.30;;;9.60;99.90;;;;;;5130088;27;20049;-65
2021/09/22 06:18:05;;;;;;;30.25;20.83;;;9.70;99.90;;;;;;5126707;27;20035;-64
2021/09/22 06:20:31;;;;;;;37.05;20.13;;;9.90;99.90;;;;;;5118981;27;20266;-65
2021/09/22 06:22:56;;;;;;;38.42;20.73;;;10.00;99.90;;;;;;5122253;27;20375;-65
2021/09/22 06:25:23;;;;;;;35.15;20.10;;;10.20;99.90;;;;;;5117039;27;20023;-65
2021/09/22 06:27:49;;;;;;;31.58;19.83;;;10.20;99.90;;;;;;5117187;27;20142;-64
2021/09/22 06:30:15;;;;;;;31.20;20.75;;;10.20;99.90;;;;;;5134916;27;20053;-65
2021/09/22 06:32:41;;;;;;;28.40;19.45;;;10.20;99.90;;;;;;5111868;27;20247;-65
2021/09/22 06:35:08;;;;;;;28.67;18.05;;;10.30;99.90;;;;;;5126809;27;20027;-65
2021/09/22 06:37:34;;;;;;;23.67;17.83;;;10.40;99.90;;;;;;5130443;27;20216;-65
2021/09/22 06:39:59;;;;;;;26.17;18.83;;;10.50;99.90;;;;;;5102921;27;20487;-65
2021/09/22 06:42:25;;;;;;;29.10;19.55;;;10.30;99.90;;;;;;5105244;27;20067;-65
2021/09/22 06:44:51;;;;;;;24.35;18.08;;;10.30;99.90;;;;;;5103500;27;20030;-66
2021/09/22 06:47:16;;;;;;;26.13;17.40;;;10.40;99.90;;;;;;5111030;27;20024;-65
2021/09/22 06:49:42;;;;;;;22.92;17.00;;;10.30;99.90;;;;;;5107072;27;20049;-65
2021/09/22 06:52:07;;;;;;;25.52;17.30;;;10.40;99.90;;;;;;5126600;27;20027;-65
2021/09/22 06:54:33;;;;;;;22.60;16.27;;;10.40;99.90;;;;;;5112638;27;20026;-65
2021/09/22 06:57:00;;;;;;;21.70;16.05;;;10.60;99.90;;;;;;5130826;27;20127;-65
2021/09/22 06:59:26;;;;;;;23.20;16.27;;;10.60;99.90;;;;;;5129799;27;20038;-64
2021/09/22 07:01:51;;;;;;;24.60;16.02;;;10.60;99.90;;;;;;5125525;27;20022;-64
2021/09/22 07:04:17;;;;;;;23.60;16.33;;;10.70;99.90;;;;;;5133869;27;20395;-65
2021/09/22 07:06:43;;;;;;;22.58;15.45;;;10.80;99.90;;;;;;5115277;27;20027;-65
2021/09/22 07:09:09;;;;;;;24.40;15.82;;;11.00;99.90;;;;;;5128120;27;20029;-65
2021/09/22 07:11:35;;;;;;;18.65;14.80;;;11.10;99.90;;;;;;5133292;27;20383;-65
2021/09/22 07:14:00;;;;;;;18.80;13.98;;;11.20;99.90;;;;;;5134606;27;20306;-65
2021/09/22 07:16:27;;;;;;;19.17;15.23;;;11.30;99.90;;;;;;5127152;27;20041;-65
2021/09/22 07:18:52;;;;;;;23.38;14.98;;;11.30;99.90;;;;;;5107087;27;20374;-66
2021/09/22 07:21:18;;;;;;;22.20;15.05;;;11.60;99.90;;;;;;5125473;27;20020;-66
2021/09/22 07:23:44;;;;;;;20.95;14.23;;;11.90;99.90;;;;;;5129523;27;20051;-66
2021/09/22 07:26:10;;;;;;;21.80;14.35;;;12.10;99.90;;;;;;5113768;27;20027;-66
2021/09/22 07:28:37;;;;;;;21.63;14.40;;;12.20;99.90;;;;;;5127081;27;20027;-65
2021/09/22 07:31:03;;;;;;;22.58;15.23;;;12.30;99.90;;;;;;5126818;27;20031;-67
2021/09/22 07:33:29;;;;;;;19.45;14.82;;;12.60;99.90;;;;;;5126583;27;20446;-66
2021/09/22 07:35:56;;;;;;;23.95;15.20;;;12.60;99.90;;;;;;5121976;27;20483;-66
2021/09/22 07:38:21;;;;;;;21.77;15.68;;;12.70;99.90;;;;;;5105408;27;20039;-66
2021/09/22 07:40:47;;;;;;;29.20;17.02;;;12.70;99.90;;;;;;5125715;27;20118;-67
2021/09/22 07:43:13;;;;;;;21.85;16.20;;;13.00;99.90;;;;;;5124511;27;20418;-66
2021/09/22 07:45:39;;;;;;;23.35;16.23;;;13.10;99.90;;;;;;5110439;27;20031;-66
2021/09/22 07:48:05;;;;;;;21.95;16.50;;;13.30;99.90;;;;;;5115319;27;20042;-65
2021/09/22 07:50:31;;;;;;;22.13;15.77;;;13.90;99.90;;;;;;5116679;27;20027;-66
2021/09/22 07:52:57;;;;;;;19.70;14.60;;;14.60;99.90;;;;;;5123776;27;20696;-67
2021/09/22 07:55:23;;;;;;;21.08;15.50;;;15.30;99.90;;;;;;5121391;27;20033;-66
2021/09/22 07:57:52;;;;;;;19.77;15.23;;;15.80;99.90;;;;;;5124441;27;20024;-66
2021/09/22 08:00:18;;;;;;;21.88;14.57;;;16.10;99.90;;;;;;5130784;27;20052;-67
2021/09/22 08:02:44;;;;;;;18.08;13.98;;;16.50;99.90;;;;;;5091732;27;20432;-66
2021/09/22 08:05:10;;;;;;;19.45;13.93;;;17.30;99.90;;;;;;5116819;27;20137;-67
2021/09/22 08:07:36;;;;;;;19.45;13.52;;;17.80;99.90;;;;;;5126554;27;20530;-67
2021/09/22 08:10:04;;;;;;;19.05;13.65;;;17.90;99.90;;;;;;5130520;27;20023;-67
2021/09/22 08:12:30;;;;;;;17.45;12.48;;;18.10;99.90;;;;;;5111442;27;20092;-67
2021/09/22 08:14:55;;;;;;;18.15;13.85;;;17.70;99.90;;;;;;5126824;27;20148;-67
2021/09/22 08:17:21;;;;;;;19.10;13.27;;;17.80;99.90;;;;;;5128864;27;20102;-67
2021/09/22 08:19:47;;;;;;;17.42;12.88;;;18.10;99.90;;;;;;5128495;27;20023;-67
2021/09/22 08:22:13;;;;;;;25.23;13.35;;;18.10;99.90;;;;;;5108680;27;20050;-67
2021/09/22 08:24:39;;;;;;;20.73;13.75;;;18.10;99.90;;;;;;5128505;27;20023;-68
2021/09/22 08:27:05;;;;;;;17.73;12.05;;;18.50;99.90;;;;;;5126309;27;20023;-67
2021/09/22 08:29:32;;;;;;;17.00;13.05;;;18.80;99.90;;;;;;5129999;27;20023;-67
2021/09/22 08:31:57;;;;;;;18.65;12.93;;;18.40;99.90;;;;;;5129819;27;20419;-66
2021/09/22 08:34:23;;;;;;;15.90;12.23;;;18.60;99.90;;;;;;5128882;27;20027;-67
2021/09/22 08:36:49;;;;;;;19.00;12.93;;;18.10;99.90;;;;;;5124915;27;20131;-66
2021/09/22 08:39:16;;;;;;;15.63;12.95;;;17.90;99.90;;;;;;5121646;27;20080;-66
2021/09/22 08:41:42;;;;;;;20.67;13.07;;;18.10;99.90;;;;;;5119892;27;20027;-67
2021/09/22 08:44:12;;;;;;;16.23;12.70;;;18.60;99.90;;;;;;5124003;27;20054;-67
2021/09/22 08:46:40;;;;;;;17.75;12.68;;;18.80;99.90;;;;;;5123043;27;20015;-67
2021/09/22 08:49:07;;;;;;;16.63;12.52;;;18.80;99.90;;;;;;5107539;27;20391;-68
2021/09/22 08:51:34;;;;;;;17.98;12.57;;;18.90;99.90;;;;;;5126414;27;20023;-67
2021/09/22 08:54:00;;;;;;;15.25;12.77;;;18.70;99.90;;;;;;5107637;27;20129;-67
2021/09/22 08:56:26;;;;;;;17.73;11.90;;;18.70;99.90;;;;;;5129339;27;20102;-67
2021/09/22 08:58:52;;;;;;;15.35;11.55;;;18.70;99.90;;;;;;5125606;27;20062;-67
2021/09/22 09:01:21;;;;;;;15.38;11.07;;;18.80;99.90;;;;;;5110342;27;20363;-66
2021/09/22 09:03:49;;;;;;;18.25;11.23;;;18.80;99.90;;;;;;5125505;27;20126;-69
2021/09/22 09:06:35;;;;;;;14.95;11.75;;;19.20;99.90;;;;;;5104716;27;20027;-68
2021/09/22 09:09:03;;;;;;;13.15;11.18;;;19.60;99.90;;;;;;5114016;27;20019;-69
2021/09/22 09:11:37;;;;;;;15.23;11.68;;;19.60;99.90;;;;;;5123574;27;20096;-67
2021/09/22 09:14:06;;;;;;;17.55;12.25;;;19.60;99.90;;;;;;5109138;27;20491;-68
2021/09/22 09:16:44;;;;;;;14.88;11.88;;;20.00;99.90;;;;;;5109846;27;20471;-68
2021/09/22 09:19:21;;;;;;;15.00;10.57;;;20.50;99.90;;;;;;5109049;27;20062;-68
2021/09/22 09:22:01;;;;;;;13.63;9.88;;;20.90;99.90;;;;;;5107732;27;20031;-67
2021/09/22 09:24:32;;;;;;;16.77;11.00;;;21.00;98.70;;;;;;5126561;27;20518;-68
2021/09/22 09:26:58;;;;;;;15.43;11.95;;;21.00;99.40;;;;;;5107934;27;20045;-68
2021/09/22 09:29:24;;;;;;;13.45;12.05;;;20.80;99.80;;;;;;5128928;27;20071;-68
2021/09/22 09:31:49;;;;;;;14.15;12.07;;;20.80;99.30;;;;;;5124470;27;20030;-68
2021/09/22 09:34:15;;;;;;;13.80;11.52;;;20.80;99.90;;;;;;5125181;27;20023;-68
2021/09/22 09:36:45;;;;;;;17.92;12.13;;;21.10;99.70;;;;;;5130848;27;20022;-68
2021/09/22 09:39:29;;;;;;;13.95;10.02;;;20.60;99.80;;;;;;5106187;27;20031;-68
2021/09/22 09:41:56;;;;;;;12.13;10.23;;;21.00;97.80;;;;;;5115230;27;20502;-68
2021/09/22 09:44:23;;;;;;;12.63;10.68;;;21.70;97.70;;;;;;5128521;27;20077;-68
2021/09/22 09:46:51;;;;;;;19.40;10.95;;;22.10;96.50;;;;;;5115550;27;20110;-68
2021/09/22 09:49:21;;;;;;;14.35;9.10;;;22.00;96.20;;;;;;5119428;27;20591;-68
2021/09/22 09:51:54;;;;;;;17.05;9.52;;;21.90;94.60;;;;;;5106848;28;20027;-69
2021/09/22 09:54:28;;;;;;;11.02;9.02;;;21.70;95.40;;;;;;5126611;27;20039;-68
2021/09/22 09:56:56;;;;;;;12.60;9.70;;;21.00;94.50;;;;;;5106837;28;20031;-68
2021/09/22 09:59:25;;;;;;;16.45;9.95;;;20.50;95.60;;;;;;5093606;28;20019;-68
2021/09/22 10:01:54;;;;;;;13.70;10.48;;;20.60;96.60;;;;;;5122445;27;20479;-68
2021/09/22 10:04:22;;;;;;;27.05;11.20;;;20.90;95.90;;;;;;5103079;28;20023;-68
2021/09/22 10:06:50;;;;;;;16.83;10.85;;;22.00;95.20;;;;;;5124753;28;20130;-68
2021/09/22 10:09:16;;;;;;;12.48;10.23;;;22.40;94.00;;;;;;5105164;27;20110;-68
2021/09/22 10:11:45;;;;;;;17.27;11.07;;;22.60;92.80;;;;;;5127215;27;20027;-68
2021/09/22 10:14:13;;;;;;;16.25;10.88;;;22.10;93.20;;;;;;5107308;28;20029;-69
2021/09/22 10:16:40;;;;;;;15.23;10.93;;;22.30;92.80;;;;;;5123036;28;20035;-68
2021/09/22 10:19:06;;;;;;;15.52;10.95;;;22.30;93.60;;;;;;5119189;27;20431;-69
2021/09/22 10:21:34;;;;;;;14.20;11.00;;;22.70;93.20;;;;;;5104617;28;20043;-69
2021/09/22 10:24:03;;;;;;;14.63;10.65;;;22.60;92.40;;;;;;5125959;28;20483;-69
2021/09/22 10:26:31;;;;;;;12.95;10.60;;;22.40;91.60;;;;;;5110547;28;20028;-67
2021/09/22 10:29:00;;;;;;;11.45;9.50;;;21.70;93.80;;;;;;5110395;28;20072;-69
2021/09/22 10:31:29;;;;;;;11.65;10.25;;;22.20;92.80;;;;;;5110292;28;20031;-68
2021/09/22 10:33:57;;;;;;;14.63;9.10;;;21.90;92.50;;;;;;5126767;28;20031;-69
2021/09/22 10:36:33;;;;;;;11.50;8.93;;;22.60;92.60;;;;;;5106295;28;20079;-68
2021/09/22 10:38:59;;;;;;;12.07;9.52;;;22.60;91.90;;;;;;5109163;28;20074;-68
2021/09/22 10:41:31;;;;;;;13.25;10.38;;;21.90;91.20;;;;;;5129544;27;20043;-68
2021/09/22 10:43:57;;;;;;;15.75;10.82;;;22.10;91.60;;;;;;5111803;28;20024;-68
2021/09/22 10:46:23;;;;;;;16.95;10.32;;;21.90;91.60;;;;;;5129889;28;20088;-69
2021/09/22 10:48:54;;;;;;;14.90;9.43;;;22.20;92.20;;;;;;5111195;28;20031;-69
2021/09/22 10:51:31;;;;;;;11.68;9.52;;;22.40;91.00;;;;;;5132041;27;20047;-69
2021/09/22 10:54:17;;;;;;;13.18;10.13;;;22.20;91.40;;;;;;5121260;27;20662;-69
2021/09/22 10:57:00;;;;;;;14.25;10.15;;;22.00;91.20;;;;;;5129996;27;20450;-68
2021/09/22 10:59:32;;;;;;;14.80;10.73;;;22.80;90.50;;;;;;5114056;28;20068;-68
2021/09/22 11:01:59;;;;;;;16.17;10.53;;;22.80;90.50;;;;;;5114557;27;20024;-68
2021/09/22 11:04:25;;;;;;;15.35;11.00;;;22.10;91.40;;;;;;5133648;27;20172;-68
2021/09/22 11:06:56;;;;;;;14.20;10.32;;;21.70;91.40;;;;;;5131326;27;20476;-68
2021/09/22 11:09:22;;;;;;;16.23;11.10;;;21.90;91.10;;;;;;5134815;27;20102;-68
2021/09/22 11:12:00;;;;;;;13.82;10.63;;;22.00;91.30;;;;;;5134585;27;20152;-68
2021/09/22 11:14:42;;;;;;;15.55;11.45;;;22.10;91.00;;;;;;5115384;27;20024;-68
2021/09/22 11:17:26;;;;;;;16.75;10.95;;;22.80;90.40;;;;;;5134106;27;20054;-68
2021/09/22 11:19:58;;;;;;;15.70;10.88;;;23.30;88.80;;;;;;5132179;27;20073;-68
2021/09/22 11:22:30;;;;;;;13.57;10.52;;;22.70;90.00;;;;;;5134825;27;20024;-68
2021/09/22 11:25:01;;;;;;;14.88;10.73;;;23.50;89.20;;;;;;5134262;27;20043;-69
2021/09/22 11:27:27;;;;;;;14.57;10.82;;;24.60;85.20;;;;;;5106662;28;20032;-68
2021/09/22 11:29:59;;;;;;;14.20;10.52;;;25.10;83.30;;;;;;5113455;28;20031;-69
2021/09/22 11:32:32;;;;;;;15.43;11.50;;;24.80;82.90;;;;;;5113535;28;20080;-68
2021/09/22 11:34:59;;;;;;;14.20;10.75;;;24.50;83.00;;;;;;5113878;28;20261;-68
2021/09/22 11:37:41;;;;;;;17.25;9.60;;;24.80;81.80;;;;;;5113197;28;20442;-68
2021/09/22 11:40:23;;;;;;;13.80;9.73;;;25.50;80.60;;;;;;5114824;28;20024;-68
2021/09/22 11:43:04;;;;;;;14.30;10.88;;;25.00;83.00;;;;;;5133530;27;20510;-69
2021/09/22 11:45:58;;;;;;;14.05;10.77;;;24.50;84.00;;;;;;5133940;27;20030;-68
2021/09/22 11:48:30;;;;;;;14.13;11.07;;;23.90;85.20;;;;;;5123296;27;20050;-68
2021/09/22 11:50:56;;;;;;;14.13;11.00;;;23.60;85.50;;;;;;5134148;27;20535;-69
2021/09/22 11:53:30;;;;;;;15.65;11.50;;;24.00;85.40;;;;;;5134272;27;20023;-68
2021/09/22 11:55:57;;;;;;;17.38;12.23;;;24.90;82.90;;;;;;5134692;27;20127;-69
2021/09/22 11:58:25;;;;;;;14.07;11.80;;;25.50;80.80;;;;;;5134018;27;20039;-69
2021/09/22 12:00:57;;;;;;;17.35;12.70;;;25.70;79.80;;;;;;5134417;27;20475;-68
2021/09/22 12:03:25;;;;;;;20.13;11.85;;;24.90;80.60;;;;;;5134067;27;20039;-68
2021/09/22 12:06:10;;;;;;;14.95;11.63;;;24.70;80.80;;;;;;5134232;27;20380;-68
2021/09/22 12:08:38;;;;;;;14.30;11.38;;;25.80;79.00;;;;;;5131056;27;20034;-68
2021/09/22 12:11:04;;;;;;;13.90;11.68;;;25.30;79.30;;;;;;5133878;27;20054;-68
2021/09/22 12:13:30;;;;;;;14.63;11.68;;;24.50;81.30;;;;;;5134119;27;20039;-68
2021/09/22 12:15:58;;;;;;;16.58;11.90;;;24.20;81.70;;;;;;5115401;27;20075;-68
2021/09/22 12:18:25;;;;;;;15.98;11.55;;;24.10;83.10;;;;;;5131942;27;20080;-68
2021/09/22 12:20:51;;;;;;;15.75;11.63;;;24.10;83.30;;;;;;5133471;27;20102;-68
2021/09/22 12:23:28;;;;;;;17.23;11.43;;;24.70;80.70;;;;;;5134068;27;20479;-68
2021/09/22 12:26:11;;;;;;;14.40;11.82;;;24.70;81.60;;;;;;5133934;27;20138;-68
2021/09/22 12:28:37;;;;;;;16.05;11.30;;;24.40;81.10;;;;;;5105064;27;20023;-69